Time;durP1;ratioP1;P1;durP2;ratioP2;P2;SDS_P1;SDS_P2;PMS_P1;PMS_P2;Temp;Humidity;BMP_temperature;BMP_pressure;BME280_temperature;BME280_humidity;BME280_pressure;Samples;Min_cycle;Max_cycle;Signal;HPM_P1;HPM_P2
2024/01/16 00:01:23;;;;;;;13.60;7.80;;;;;;;;;;5027522;28;20406;-78
2024/01/16 00:03:49;;;;;;;17.40;9.33;;;;;;;;;;5026636;28;20449;-78
2024/01/16 00:06:15;;;;;;;16.92;9.27;;;;;;;;;;5026708;28;20437;-78
2024/01/16 00:08:41;;;;;;;14.27;9.73;;;;;;;;;;5026403;28;20237;-78
2024/01/16 00:11:07;;;;;;;15.98;6.15;;;;;;;;;;5026980;28;20261;-78
2024/01/16 00:13:33;;;;;;;12.60;7.80;;;;;;;;;;5026874;28;20186;-78
2024/01/16 00:16:02;;;;;;;18.08;8.45;;;;;;;;;;5026897;28;20530;-78
2024/01/16 00:18:28;;;;;;;11.20;6.80;;;;;;;;;;5023147;28;20721;-78
2024/01/16 00:20:54;;;;;;;17.67;8.75;;;;;;;;;;5008217;28;20201;-79
2024/01/16 00:23:20;;;;;;;12.18;7.10;;;;;;;;;;5007508;28;20184;-77
2024/01/16 00:25:46;;;;;;;15.00;7.70;;;;;;;;;;5016714;28;20219;-78
2024/01/16 00:28:12;;;;;;;19.25;10.13;;;;;;;;;;5026655;28;20485;-78
2024/01/16 00:30:38;;;;;;;14.30;6.63;;;;;;;;;;5026877;28;20179;-78
2024/01/16 00:33:04;;;;;;;17.80;8.55;;;;;;;;;;5026586;28;20184;-78
2024/01/16 00:35:30;;;;;;;13.30;7.15;;;;;;;;;;5026842;28;20206;-78
2024/01/16 00:37:56;;;;;;;11.77;8.57;;;;;;;;;;5023603;28;20190;-78
2024/01/16 00:40:22;;;;;;;15.30;7.90;;;;;;;;;;5026571;28;20438;-78
2024/01/16 00:42:48;;;;;;;16.40;8.60;;;;;;;;;;5025482;28;20437;-79
2024/01/16 00:45:14;;;;;;;11.83;7.43;;;;;;;;;;5026546;28;20773;-78
2024/01/16 00:47:41;;;;;;;12.87;7.70;;;;;;;;;;5026484;28;20831;-78
2024/01/16 00:50:09;;;;;;;11.45;6.65;;;;;;;;;;5026310;28;20929;-78
2024/01/16 00:52:35;;;;;;;12.82;7.25;;;;;;;;;;5026222;28;20190;-78
2024/01/16 00:55:01;;;;;;;14.88;8.52;;;;;;;;;;5025261;28;20243;-78
2024/01/16 00:57:27;;;;;;;13.15;7.15;;;;;;;;;;5026115;28;20247;-78
2024/01/16 00:59:52;;;;;;;12.60;6.60;;;;;;;;;;5025597;28;20599;-78
2024/01/16 01:02:18;;;;;;;10.43;7.70;;;;;;;;;;5025966;28;20417;-78
2024/01/16 01:04:44;;;;;;;11.75;7.90;;;;;;;;;;5025618;28;20453;-79
2024/01/16 01:07:13;;;;;;;20.03;8.57;;;;;;;;;;5024875;28;20179;-78
2024/01/16 01:09:39;;;;;;;9.25;6.18;;;;;;;;;;5026091;28;20488;-78
2024/01/16 01:12:05;;;;;;;14.00;6.90;;;;;;;;;;5025701;28;20185;-78
2024/01/16 01:14:31;;;;;;;21.27;7.93;;;;;;;;;;5026078;28;20461;-78
2024/01/16 01:16:57;;;;;;;11.00;7.60;;;;;;;;;;5025641;28;20171;-78
2024/01/16 01:19:23;;;;;;;13.70;6.57;;;;;;;;;;5026142;28;20179;-78
2024/01/16 01:21:49;;;;;;;12.02;6.50;;;;;;;;;;5025822;28;20643;-78
2024/01/16 01:24:15;;;;;;;15.60;6.75;;;;;;;;;;5006953;28;20184;-78
2024/01/16 01:26:44;;;;;;;11.93;6.53;;;;;;;;;;5006724;28;20238;-78
2024/01/16 01:29:10;;;;;;;9.55;7.05;;;;;;;;;;5005564;28;20283;-78
2024/01/16 01:31:37;;;;;;;11.30;6.90;;;;;;;;;;5006178;28;20188;-78
2024/01/16 01:34:04;;;;;;;13.73;7.28;;;;;;;;;;5020577;28;20175;-78
2024/01/16 01:36:30;;;;;;;19.50;8.60;;;;;;;;;;5005479;28;20274;-78
2024/01/16 01:38:56;;;;;;;11.40;7.80;;;;;;;;;;5005223;28;20188;-78
2024/01/16 01:41:22;;;;;;;11.97;6.80;;;;;;;;;;5006033;28;20430;-78
2024/01/16 01:43:48;;;;;;;15.85;9.40;;;;;;;;;;5005203;28;20470;-79
2024/01/16 01:46:15;;;;;;;18.33;9.80;;;;;;;;;;5004812;28;20191;-78
2024/01/16 01:48:42;;;;;;;15.88;10.10;;;;;;;;;;5020600;28;20232;-78
2024/01/16 01:51:08;;;;;;;11.57;9.23;;;;;;;;;;5024983;28;20607;-78
2024/01/16 01:53:35;;;;;;;18.40;9.98;;;;;;;;;;5025225;28;20182;-78
2024/01/16 01:56:05;;;;;;;13.48;8.60;;;;;;;;;;5024891;28;20182;-78
2024/01/16 01:58:32;;;;;;;13.52;8.00;;;;;;;;;;5024749;28;20286;-78
2024/01/16 02:00:58;;;;;;;15.15;9.40;;;;;;;;;;5023968;28;20183;-78
2024/01/16 02:03:25;;;;;;;10.82;7.28;;;;;;;;;;5024773;28;20194;-78
2024/01/16 02:05:51;;;;;;;13.52;7.50;;;;;;;;;;5025190;28;20207;-79
2024/01/16 02:08:18;;;;;;;13.10;6.20;;;;;;;;;;5024406;28;20210;-78
2024/01/16 02:10:45;;;;;;;13.30;6.85;;;;;;;;;;5024474;28;20226;-78
2024/01/16 02:13:12;;;;;;;15.32;8.13;;;;;;;;;;5024671;28;20178;-78
2024/01/16 02:15:41;;;;;;;21.15;8.15;;;;;;;;;;5024708;28;20533;-78
2024/01/16 02:18:07;;;;;;;17.90;9.23;;;;;;;;;;5012021;28;20183;-78
2024/01/16 02:20:33;;;;;;;11.85;7.53;;;;;;;;;;5004852;28;20230;-78
2024/01/16 02:23:00;;;;;;;17.98;7.50;;;;;;;;;;5004868;28;20179;-78
2024/01/16 02:25:26;;;;;;;17.15;7.90;;;;;;;;;;5005540;28;20175;-78
2024/01/16 02:27:52;;;;;;;16.70;8.23;;;;;;;;;;5005255;28;20193;-78
2024/01/16 02:30:18;;;;;;;12.88;7.63;;;;;;;;;;5005447;28;20194;-78
2024/01/16 02:32:44;;;;;;;13.85;8.70;;;;;;;;;;5005457;28;20171;-78
2024/01/16 02:35:10;;;;;;;18.40;8.90;;;;;;;;;;5005141;28;20187;-78
2024/01/16 02:37:36;;;;;;;19.30;8.80;;;;;;;;;;5005218;28;20778;-78
2024/01/16 02:40:05;;;;;;;14.55;8.50;;;;;;;;;;5035630;28;20444;-78
2024/01/16 02:42:32;;;;;;;12.55;7.25;;;;;;;;;;5044856;28;20183;-79
2024/01/16 02:44:57;;;;;;;16.15;8.23;;;;;;;;;;5044136;28;20183;-78
2024/01/16 02:47:23;;;;;;;16.83;9.27;;;;;;;;;;5039977;28;20218;-78
2024/01/16 02:49:49;;;;;;;13.23;8.70;;;;;;;;;;5023640;28;20469;-79
2024/01/16 02:52:15;;;;;;;17.57;8.70;;;;;;;;;;5025511;28;20413;-78
2024/01/16 02:54:41;;;;;;;16.50;8.00;;;;;;;;;;5024710;28;20413;-78
2024/01/16 02:57:07;;;;;;;23.75;11.20;;;;;;;;;;5024160;28;20202;-78
2024/01/16 02:59:33;;;;;;;15.60;9.50;;;;;;;;;;5027733;28;20577;-78
2024/01/16 03:01:59;;;;;;;18.52;8.93;;;;;;;;;;5027951;28;20878;-79
2024/01/16 03:04:26;;;;;;;17.37;8.33;;;;;;;;;;5027818;28;20179;-78
2024/01/16 03:06:51;;;;;;;21.15;8.45;;;;;;;;;;5028331;28;20456;-79
2024/01/16 03:09:18;;;;;;;22.53;8.60;;;;;;;;;;5027020;28;20223;-78
2024/01/16 03:11:44;;;;;;;13.85;8.85;;;;;;;;;;5028362;28;20449;-78
2024/01/16 03:14:10;;;;;;;20.30;9.60;;;;;;;;;;5027748;28;20194;-78
2024/01/16 03:16:36;;;;;;;22.27;9.88;;;;;;;;;;5028796;28;20897;-78
2024/01/16 03:19:01;;;;;;;11.40;7.97;;;;;;;;;;5027743;28;20181;-78
2024/01/16 03:21:27;;;;;;;18.90;8.80;;;;;;;;;;5028360;28;20949;-78
2024/01/16 03:23:54;;;;;;;13.67;8.70;;;;;;;;;;5027421;28;20433;-78
2024/01/16 03:26:20;;;;;;;22.77;10.32;;;;;;;;;;5027823;28;20414;-78
2024/01/16 03:28:46;;;;;;;18.27;10.13;;;;;;;;;;5027983;28;20217;-78
2024/01/16 03:31:15;;;;;;;14.20;9.40;;;;;;;;;;5027615;28;20442;-78
2024/01/16 03:33:44;;;;;;;21.90;9.95;;;;;;;;;;5027914;28;20534;-78
2024/01/16 03:36:11;;;;;;;19.75;9.95;;;;;;;;;;5028122;28;20198;-78
2024/01/16 03:38:37;;;;;;;20.48;9.70;;;;;;;;;;5027706;28;20183;-78
2024/01/16 03:41:03;;;;;;;29.77;9.90;;;;;;;;;;5027148;28;20179;-78
2024/01/16 03:43:30;;;;;;;13.95;8.20;;;;;;;;;;5028058;28;20866;-78
2024/01/16 03:45:58;;;;;;;14.32;8.40;;;;;;;;;;5027484;28;20258;-78
2024/01/16 03:48:24;;;;;;;18.30;10.70;;;;;;;;;;5026928;28;20206;-78
2024/01/16 03:50:50;;;;;;;13.13;8.80;;;;;;;;;;5027733;28;20182;-78
2024/01/16 03:53:16;;;;;;;19.33;10.77;;;;;;;;;;5022963;28;20429;-78
2024/01/16 03:55:42;;;;;;;20.63;8.83;;;;;;;;;;5027403;28;20436;-78
2024/01/16 03:58:08;;;;;;;13.27;7.60;;;;;;;;;;5027163;28;20410;-78
2024/01/16 04:00:34;;;;;;;18.10;9.20;;;;;;;;;;5027179;28;20189;-78
2024/01/16 04:03:00;;;;;;;15.80;10.77;;;;;;;;;;5026676;28;20516;-78
2024/01/16 04:05:26;;;;;;;21.80;10.45;;;;;;;;;;5027559;28;20411;-78
2024/01/16 04:07:53;;;;;;;17.45;10.27;;;;;;;;;;5027188;28;20226;-78
2024/01/16 04:10:19;;;;;;;19.30;9.97;;;;;;;;;;5027028;28;20227;-78
2024/01/16 04:12:45;;;;;;;28.38;8.95;;;;;;;;;;5027376;28;20429;-78
2024/01/16 04:15:11;;;;;;;19.27;9.00;;;;;;;;;;5026784;28;20190;-78
2024/01/16 04:17:37;;;;;;;18.47;8.70;;;;;;;;;;5027823;28;20422;-78
2024/01/16 04:20:03;;;;;;;15.10;7.70;;;;;;;;;;5026965;28;20406;-78
2024/01/16 04:22:29;;;;;;;12.70;8.90;;;;;;;;;;5027210;28;20410;-78
2024/01/16 04:24:55;;;;;;;15.70;9.20;;;;;;;;;;5022164;28;20278;-78
2024/01/16 04:27:21;;;;;;;22.33;8.35;;;;;;;;;;5014506;28;20450;-78
2024/01/16 04:29:47;;;;;;;15.20;7.73;;;;;;;;;;5007167;28;20204;-78
2024/01/16 04:32:13;;;;;;;13.87;7.60;;;;;;;;;;5023893;28;20862;-78
2024/01/16 04:34:39;;;;;;;18.23;8.20;;;;;;;;;;5027112;28;20413;-78
2024/01/16 04:37:05;;;;;;;14.10;7.93;;;;;;;;;;5027225;28;20202;-78
2024/01/16 04:39:31;;;;;;;12.80;7.70;;;;;;;;;;5026130;28;20476;-78
2024/01/16 04:41:57;;;;;;;19.05;7.72;;;;;;;;;;5026949;28;20426;-79
2024/01/16 04:44:23;;;;;;;19.30;6.07;;;;;;;;;;5026593;28;20206;-78
2024/01/16 04:46:49;;;;;;;18.63;8.40;;;;;;;;;;5025111;28;20205;-78
2024/01/16 04:49:15;;;;;;;16.60;6.70;;;;;;;;;;5025726;28;20473;-78
2024/01/16 04:51:41;;;;;;;12.90;6.80;;;;;;;;;;5025920;28;20424;-78
2024/01/16 04:54:07;;;;;;;11.23;6.82;;;;;;;;;;5026195;28;20519;-78
2024/01/16 04:56:33;;;;;;;14.15;7.05;;;;;;;;;;5026723;28;20209;-78
2024/01/16 04:58:59;;;;;;;18.15;7.60;;;;;;;;;;5019411;28;20215;-79
2024/01/16 05:01:25;;;;;;;17.15;7.07;;;;;;;;;;5005439;28;20551;-78
2024/01/16 05:03:51;;;;;;;15.35;5.47;;;;;;;;;;5007169;28;20180;-78
2024/01/16 05:06:17;;;;;;;13.80;5.90;;;;;;;;;;5006022;28;20194;-78
2024/01/16 05:08:43;;;;;;;12.90;6.83;;;;;;;;;;5006356;28;20469;-78
2024/01/16 05:11:10;;;;;;;16.70;5.95;;;;;;;;;;5005810;28;20469;-78
2024/01/16 05:13:35;;;;;;;14.75;7.35;;;;;;;;;;5006651;28;20226;-78
2024/01/16 05:16:01;;;;;;;15.18;6.38;;;;;;;;;;5005589;28;20187;-78
2024/01/16 05:18:27;;;;;;;13.60;6.03;;;;;;;;;;5006309;28;20702;-78
2024/01/16 05:20:55;;;;;;;14.37;6.73;;;;;;;;;;5005183;28;20411;-78
2024/01/16 05:23:21;;;;;;;18.80;5.88;;;;;;;;;;5006471;28;20407;-78
2024/01/16 05:25:47;;;;;;;18.63;7.30;;;;;;;;;;5006710;28;20194;-78
2024/01/16 05:28:13;;;;;;;12.03;5.73;;;;;;;;;;5005406;28;20961;-78
2024/01/16 05:30:39;;;;;;;10.00;6.05;;;;;;;;;;5005765;28;20890;-78
2024/01/16 05:33:05;;;;;;;17.08;8.95;;;;;;;;;;5005987;28;20184;-78
2024/01/16 05:35:33;;;;;;;7.97;5.03;;;;;;;;;;5018906;28;20231;-78
2024/01/16 05:37:59;;;;;;;18.50;7.17;;;;;;;;;;5045240;28;20181;-79
2024/01/16 05:40:25;;;;;;;12.65;6.40;;;;;;;;;;5025682;28;20410;-78
2024/01/16 05:42:51;;;;;;;14.07;6.10;;;;;;;;;;5025303;28;20194;-78
2024/01/16 05:45:18;;;;;;;16.35;6.38;;;;;;;;;;5006555;28;20183;-78
2024/01/16 05:47:44;;;;;;;15.05;6.20;;;;;;;;;;5005467;28;20179;-78
2024/01/16 05:50:10;;;;;;;12.73;7.25;;;;;;;;;;5005838;28;20174;-78
2024/01/16 05:52:36;;;;;;;12.68;6.40;;;;;;;;;;5005684;28;20167;-78
2024/01/16 05:55:02;;;;;;;14.10;5.80;;;;;;;;;;5005631;28;20176;-79
2024/01/16 05:57:33;;;;;;;11.93;5.95;;;;;;;;;;5005643;28;20262;-78
2024/01/16 06:00:01;;;;;;;10.43;7.50;;;;;;;;;;5005286;28;20635;-77
2024/01/16 06:02:27;;;;;;;10.73;5.60;;;;;;;;;;5020429;28;20284;-78
2024/01/16 06:04:54;;;;;;;6.03;4.75;;;;;;;;;;5005944;28;20171;-78
2024/01/16 06:07:20;;;;;;;9.97;5.17;;;;;;;;;;5005202;28;20194;-78
2024/01/16 06:09:46;;;;;;;19.92;6.70;;;;;;;;;;5005221;28;20503;-78
2024/01/16 06:12:12;;;;;;;11.30;5.90;;;;;;;;;;5005782;28;20211;-78
2024/01/16 06:14:38;;;;;;;14.35;5.82;;;;;;;;;;5005694;28;20403;-78
2024/01/16 06:17:05;;;;;;;18.75;6.00;;;;;;;;;;5005317;28;20190;-78
2024/01/16 06:19:32;;;;;;;13.77;5.13;;;;;;;;;;5004984;28;20183;-79
2024/01/16 06:21:59;;;;;;;18.67;5.72;;;;;;;;;;5005591;28;20219;-79
2024/01/16 06:24:25;;;;;;;19.63;5.85;;;;;;;;;;5015833;28;20211;-78
2024/01/16 06:26:51;;;;;;;12.27;5.80;;;;;;;;;;5017599;28;20187;-78
2024/01/16 06:29:17;;;;;;;15.93;4.20;;;;;;;;;;5024816;28;20563;-78
2024/01/16 06:31:43;;;;;;;11.82;5.50;;;;;;;;;;5026287;28;20187;-78
2024/01/16 06:34:09;;;;;;;9.83;5.03;;;;;;;;;;5029319;28;20182;-78
2024/01/16 06:36:35;;;;;;;9.77;5.25;;;;;;;;;;5028904;28;20413;-78
2024/01/16 06:39:01;;;;;;;11.93;4.67;;;;;;;;;;5029097;28;20631;-78
2024/01/16 06:41:27;;;;;;;7.78;5.15;;;;;;;;;;5018264;28;20501;-77
2024/01/16 06:43:53;;;;;;;13.33;5.10;;;;;;;;;;5024003;28;20211;-78
2024/01/16 06:46:19;;;;;;;12.63;4.60;;;;;;;;;;5015939;28;20428;-78
2024/01/16 06:48:45;;;;;;;7.97;4.20;;;;;;;;;;5028269;28;20453;-78
2024/01/16 06:51:13;;;;;;;11.35;5.45;;;;;;;;;;5027636;28;20179;-78
2024/01/16 06:53:39;;;;;;;9.65;4.85;;;;;;;;;;5027768;28;20189;-78
2024/01/16 06:56:08;;;;;;;9.27;4.87;;;;;;;;;;5028103;28;20247;-78
2024/01/16 06:58:35;;;;;;;14.82;4.65;;;;;;;;;;5028289;28;20905;-78
2024/01/16 07:01:01;;;;;;;17.27;5.18;;;;;;;;;;5028235;28;20246;-78
2024/01/16 07:03:27;;;;;;;10.43;4.72;;;;;;;;;;5027784;28;20191;-78
2024/01/16 07:05:53;;;;;;;10.63;5.10;;;;;;;;;;5028624;28;20274;-78
2024/01/16 07:08:18;;;;;;;12.60;4.90;;;;;;;;;;5027770;28;20937;-78
2024/01/16 07:10:46;;;;;;;8.02;4.20;;;;;;;;;;5028531;28;20468;-78
2024/01/16 07:13:12;;;;;;;8.90;4.03;;;;;;;;;;5027578;28;20200;-78
2024/01/16 07:15:38;;;;;;;18.02;4.38;;;;;;;;;;5028327;28;20178;-78
2024/01/16 07:18:04;;;;;;;13.93;4.95;;;;;;;;;;5027616;28;20191;-78
2024/01/16 07:20:30;;;;;;;6.80;4.30;;;;;;;;;;5028027;28;20594;-78
2024/01/16 07:22:56;;;;;;;12.07;3.90;;;;;;;;;;5028448;28;20182;-78
2024/01/16 07:25:22;;;;;;;9.40;3.75;;;;;;;;;;5027699;28;20407;-78
2024/01/16 07:27:49;;;;;;;5.38;3.42;;;;;;;;;;5027548;28;20179;-78
2024/01/16 07:30:15;;;;;;;10.55;4.68;;;;;;;;;;5027645;28;20190;-78
2024/01/16 07:32:41;;;;;;;11.57;4.47;;;;;;;;;;5027868;28;20225;-78
2024/01/16 07:35:08;;;;;;;12.07;4.28;;;;;;;;;;5026553;28;20182;-79
2024/01/16 07:37:34;;;;;;;11.60;3.67;;;;;;;;;;5027730;28;20585;-78
2024/01/16 07:40:00;;;;;;;8.88;3.65;;;;;;;;;;5027432;28;20183;-78
2024/01/16 07:42:26;;;;;;;10.88;3.83;;;;;;;;;;5027562;28;20190;-78
2024/01/16 07:44:52;;;;;;;9.52;4.35;;;;;;;;;;5027066;28;20649;-78
2024/01/16 07:47:18;;;;;;;12.10;4.00;;;;;;;;;;5015337;28;20247;-78
2024/01/16 07:49:44;;;;;;;5.75;3.55;;;;;;;;;;5035535;28;20215;-78
2024/01/16 07:52:12;;;;;;;8.35;2.40;;;;;;;;;;5019141;28;20639;-78
2024/01/16 07:54:38;;;;;;;13.85;3.95;;;;;;;;;;5017289;28;20638;-78
2024/01/16 07:57:04;;;;;;;10.32;3.70;;;;;;;;;;5045815;28;20174;-78
2024/01/16 07:59:30;;;;;;;7.97;2.90;;;;;;;;;;5039750;28;20202;-78
2024/01/16 08:01:56;;;;;;;1.73;1.48;;;;;;;;;;5026676;28;20206;-78
2024/01/16 08:04:23;;;;;;;3.88;2.45;;;;;;;;;;5025891;28;20247;-78
2024/01/16 08:06:49;;;;;;;6.65;3.17;;;;;;;;;;5026887;28;20175;-78
2024/01/16 08:09:15;;;;;;;7.25;2.25;;;;;;;;;;5026397;28;20257;-78
2024/01/16 08:11:41;;;;;;;8.15;3.65;;;;;;;;;;5027390;28;20234;-77
2024/01/16 08:14:07;;;;;;;11.60;2.90;;;;;;;;;;5026966;28;20213;-78
2024/01/16 08:16:32;;;;;;;6.20;3.00;;;;;;;;;;5026184;28;20183;-78
2024/01/16 08:18:58;;;;;;;5.00;3.20;;;;;;;;;;5026759;28;20475;-77
2024/01/16 08:21:25;;;;;;;9.40;3.20;;;;;;;;;;5025880;28;20410;-78
2024/01/16 08:23:51;;;;;;;9.77;2.83;;;;;;;;;;5027126;28;20479;-78
2024/01/16 08:26:17;;;;;;;6.80;3.40;;;;;;;;;;5025299;28;20586;-77
2024/01/16 08:28:42;;;;;;;11.10;3.27;;;;;;;;;;5027109;28;20206;-78
2024/01/16 08:31:08;;;;;;;9.00;2.57;;;;;;;;;;5026836;28;20429;-78
2024/01/16 08:33:34;;;;;;;6.82;3.83;;;;;;;;;;5026105;28;20432;-78
2024/01/16 08:36:01;;;;;;;15.95;4.05;;;;;;;;;;5027190;28;20190;-78
2024/01/16 08:38:27;;;;;;;14.45;4.05;;;;;;;;;;5026203;28;20190;-78
2024/01/16 08:40:53;;;;;;;8.23;3.00;;;;;;;;;;5026831;28;20191;-78
2024/01/16 08:43:19;;;;;;;11.70;4.07;;;;;;;;;;5025956;28;20217;-78
2024/01/16 08:45:47;;;;;;;9.23;3.60;;;;;;;;;;5026810;28;20627;-78
2024/01/16 08:48:14;;;;;;;17.40;3.85;;;;;;;;;;5026083;28;20474;-78
2024/01/16 08:50:40;;;;;;;10.20;3.67;;;;;;;;;;5025763;28;20190;-78
2024/01/16 08:53:06;;;;;;;8.38;3.70;;;;;;;;;;5025214;28;20179;-78
2024/01/16 08:55:33;;;;;;;9.32;4.35;;;;;;;;;;5024743;28;20234;-78
2024/01/16 08:57:59;;;;;;;10.60;3.67;;;;;;;;;;5026512;28;20175;-78
2024/01/16 09:00:25;;;;;;;6.80;3.60;;;;;;;;;;5018603;28;20207;-77
2024/01/16 09:02:51;;;;;;;11.75;3.50;;;;;;;;;;5006343;28;20172;-77
2024/01/16 09:05:17;;;;;;;6.93;3.10;;;;;;;;;;5006774;28;20176;-78
2024/01/16 09:07:43;;;;;;;8.75;2.88;;;;;;;;;;5006236;28;20419;-77
2024/01/16 09:10:09;;;;;;;8.50;3.50;;;;;;;;;;5005543;28;20246;-78
2024/01/16 09:12:35;;;;;;;6.05;3.50;;;;;;;;;;5005130;28;20411;-78
2024/01/16 09:15:01;;;;;;;9.13;3.97;;;;;;;;;;5006244;28;20183;-78
2024/01/16 09:17:27;;;;;;;6.07;3.30;;;;;;;;;;5006126;28;20856;-78
2024/01/16 09:19:53;;;;;;;6.50;3.35;;;;;;;;;;5006232;28;20194;-77
2024/01/16 09:22:19;;;;;;;5.97;3.95;;;;;;;;;;5005455;28;20203;-78
2024/01/16 09:24:45;;;;;;;11.50;4.37;;;;;;;;;;5006210;28;20203;-77
2024/01/16 09:27:11;;;;;;;5.87;3.40;;;;;;;;;;5004846;28;20407;-77
2024/01/16 09:29:37;;;;;;;7.18;3.03;;;;;;;;;;5005716;28;20462;-77
2024/01/16 09:32:04;;;;;;;13.93;3.67;;;;;;;;;;5006154;28;20546;-78
2024/01/16 09:34:30;;;;;;;6.07;3.70;;;;;;;;;;5006743;28;20209;-78
2024/01/16 09:36:59;;;;;;;5.35;3.10;;;;;;;;;;5005658;28;20183;-78
2024/01/16 09:39:25;;;;;;;8.50;3.40;;;;;;;;;;5005847;28;20282;-78
2024/01/16 09:41:51;;;;;;;11.85;4.30;;;;;;;;;;5006332;28;20242;-77
2024/01/16 09:44:17;;;;;;;10.25;4.03;;;;;;;;;;5005995;28;20187;-78
2024/01/16 09:46:48;;;;;;;7.38;4.35;;;;;;;;;;5017845;28;20195;-77
2024/01/16 09:49:15;;;;;;;6.63;3.45;;;;;;;;;;5021589;28;20266;-77
2024/01/16 09:51:41;;;;;;;12.40;3.63;;;;;;;;;;5006547;28;20178;-77
2024/01/16 09:54:08;;;;;;;13.65;3.40;;;;;;;;;;5006200;28;20184;-77
2024/01/16 09:56:36;;;;;;;15.20;3.60;;;;;;;;;;5005123;28;20267;-78
2024/01/16 09:59:05;;;;;;;6.82;3.30;;;;;;;;;;5005736;28;20171;-78
2024/01/16 10:01:32;;;;;;;5.90;4.00;;;;;;;;;;5017314;28;20221;-77
2024/01/16 10:03:59;;;;;;;7.03;3.42;;;;;;;;;;5044874;28;20178;-77
2024/01/16 10:06:26;;;;;;;4.10;2.67;;;;;;;;;;5045637;28;20193;-78
2024/01/16 10:08:51;;;;;;;8.98;3.72;;;;;;;;;;5029852;28;20205;-77
2024/01/16 10:11:17;;;;;;;8.85;4.38;;;;;;;;;;5029221;28;20231;-78
2024/01/16 10:13:44;;;;;;;9.40;4.25;;;;;;;;;;5029859;28;20231;-77
2024/01/16 10:16:10;;;;;;;12.32;3.80;;;;;;;;;;5029778;28;20589;-77
2024/01/16 10:18:37;;;;;;;5.07;2.85;;;;;;;;;;5029583;28;20269;-77
2024/01/16 10:21:04;;;;;;;7.60;3.22;;;;;;;;;;5029578;28;20167;-77
2024/01/16 10:23:30;;;;;;;5.70;3.45;;;;;;;;;;5029886;28;20190;-77
2024/01/16 10:26:07;;;;;;;6.45;3.50;;;;;;;;;;5028537;28;20175;-77
2024/01/16 10:28:34;;;;;;;10.60;3.38;;;;;;;;;;5028708;28;20258;-78
2024/01/16 10:31:04;;;;;;;7.22;2.88;;;;;;;;;;5029195;28;20211;-78
2024/01/16 10:33:30;;;;;;;7.70;2.78;;;;;;;;;;5029038;28;20208;-77
2024/01/16 10:36:10;;;;;;;6.57;2.78;;;;;;;;;;5027946;28;20264;-77
2024/01/16 10:38:39;;;;;;;10.05;3.20;;;;;;;;;;5029004;28;20202;-77
2024/01/16 10:41:06;;;;;;;10.13;3.55;;;;;;;;;;5029297;28;20180;-77
2024/01/16 10:43:32;;;;;;;13.07;3.97;;;;;;;;;;5029253;28;20167;-78
2024/01/16 10:46:08;;;;;;;8.55;3.17;;;;;;;;;;5028528;28;20183;-77
2024/01/16 10:48:34;;;;;;;9.35;3.83;;;;;;;;;;5029122;28;20201;-78
2024/01/16 10:51:01;;;;;;;6.82;2.78;;;;;;;;;;5028453;28;20175;-77
2024/01/16 10:53:28;;;;;;;5.82;2.70;;;;;;;;;;5028598;28;20185;-78
2024/01/16 10:55:58;;;;;;;7.10;2.80;;;;;;;;;;5028904;28;20215;-77
2024/01/16 10:58:29;;;;;;;11.00;2.80;;;;;;;;;;5027278;28;20184;-78
2024/01/16 11:00:57;;;;;;;5.20;2.60;;;;;;;;;;5015172;28;20201;-78
2024/01/16 11:03:29;;;;;;;10.07;3.38;;;;;;;;;;5012832;28;20201;-78
2024/01/16 11:05:55;;;;;;;11.57;3.80;;;;;;;;;;5028590;28;20180;-78
2024/01/16 11:08:24;;;;;;;8.60;2.42;;;;;;;;;;5027704;28;20698;-78
2024/01/16 11:10:50;;;;;;;6.28;2.53;;;;;;;;;;5027957;28;20236;-78
2024/01/16 11:13:17;;;;;;;8.13;3.20;;;;;;;;;;5028565;28;20738;-78
2024/01/16 11:15:43;;;;;;;4.35;2.63;;;;;;;;;;5025293;28;20226;-77
2024/01/16 11:18:10;;;;;;;3.70;1.73;;;;;;;;;;5022959;28;20177;-77
2024/01/16 11:20:37;;;;;;;5.65;2.55;;;;;;;;;;5008502;28;20176;-77
2024/01/16 11:23:03;;;;;;;6.82;2.97;;;;;;;;;;5008385;28;20180;-77
2024/01/16 11:25:33;;;;;;;6.45;2.58;;;;;;;;;;5016971;28;20362;-77
2024/01/16 11:28:09;;;;;;;10.25;3.47;;;;;;;;;;5027388;28;20183;-77
2024/01/16 11:30:35;;;;;;;10.27;4.18;;;;;;;;;;5028389;28;20181;-77
2024/01/16 11:33:01;;;;;;;9.88;3.20;;;;;;;;;;5028250;28;20181;-77
2024/01/16 11:35:34;;;;;;;8.50;3.60;;;;;;;;;;5028000;28;20254;-77
2024/01/16 11:38:10;;;;;;;6.30;3.00;;;;;;;;;;5027894;28;20412;-77
2024/01/16 11:40:36;;;;;;;4.80;3.30;;;;;;;;;;5028085;28;20181;-77
2024/01/16 11:43:21;;;;;;;5.80;2.45;;;;;;;;;;5028081;28;20195;-77
2024/01/16 11:45:50;;;;;;;11.18;4.63;;;;;;;;;;5028478;28;20174;-77
2024/01/16 11:48:17;;;;;;;7.75;3.00;;;;;;;;;;5028345;28;20231;-77
2024/01/16 11:50:43;;;;;;;6.57;3.40;;;;;;;;;;5027695;28;20183;-77
2024/01/16 11:53:09;;;;;;;5.43;3.40;;;;;;;;;;5027039;28;20189;-77
2024/01/16 11:55:39;;;;;;;5.25;3.05;;;;;;;;;;5026880;28;20273;-77
2024/01/16 11:58:05;;;;;;;9.75;3.53;;;;;;;;;;5027181;28;20181;-77
2024/01/16 12:00:33;;;;;;;6.55;2.47;;;;;;;;;;5027064;28;20170;-78
2024/01/16 12:03:01;;;;;;;4.80;2.85;;;;;;;;;;5027410;28;20178;-77
2024/01/16 12:05:27;;;;;;;9.73;2.90;;;;;;;;;;5023707;28;20253;-79
2024/01/16 12:07:54;;;;;;;6.43;3.13;;;;;;;;;;5007610;28;20179;-78
2024/01/16 12:10:21;;;;;;;7.90;2.95;;;;;;;;;;5026646;28;20500;-77
2024/01/16 12:12:48;;;;;;;8.50;2.28;;;;;;;;;;5019707;28;20198;-77
2024/01/16 12:15:18;;;;;;;4.05;2.30;;;;;;;;;;5007448;28;20678;-77
2024/01/16 12:18:00;;;;;;;4.30;2.33;;;;;;;;;;5006635;28;20237;-77
2024/01/16 12:20:31;;;;;;;11.88;4.38;;;;;;;;;;5007208;28;20652;-78
2024/01/16 12:23:00;;;;;;;5.53;2.78;;;;;;;;;;5022022;28;20206;-77
2024/01/16 12:25:27;;;;;;;12.43;4.45;;;;;;;;;;5007035;28;20198;-78
2024/01/16 12:28:00;;;;;;;4.15;2.35;;;;;;;;;;5007113;28;20179;-77
2024/01/16 12:30:28;;;;;;;8.00;3.00;;;;;;;;;;5006980;28;20281;-78
2024/01/16 12:33:03;;;;;;;6.07;3.30;;;;;;;;;;5018496;28;20185;-77
2024/01/16 12:35:29;;;;;;;7.88;2.40;;;;;;;;;;5026200;28;20170;-77
2024/01/16 12:37:59;;;;;;;5.88;2.65;;;;;;;;;;5025946;28;20185;-77
2024/01/16 12:40:25;;;;;;;9.07;3.20;;;;;;;;;;5026239;28;20187;-78
2024/01/16 12:42:52;;;;;;;10.80;3.97;;;;;;;;;;5026449;28;20201;-77
2024/01/16 12:45:19;;;;;;;11.43;4.15;;;;;;;;;;5025727;28;20519;-77
2024/01/16 12:47:49;;;;;;;13.20;5.25;;;;;;;;;;5026325;28;20187;-77
2024/01/16 12:50:20;;;;;;;9.13;3.88;;;;;;;;;;5026243;28;20225;-77
2024/01/16 12:52:46;;;;;;;6.75;3.72;;;;;;;;;;5026305;28;20194;-77
2024/01/16 12:55:14;;;;;;;8.60;3.92;;;;;;;;;;5026496;28;20178;-77
2024/01/16 12:57:40;;;;;;;7.22;3.63;;;;;;;;;;5025968;28;20202;-77
2024/01/16 13:00:21;;;;;;;5.37;2.97;;;;;;;;;;5025797;28;20197;-77
2024/01/16 13:02:49;;;;;;;7.72;3.35;;;;;;;;;;5025435;28;20540;-77
2024/01/16 13:05:17;;;;;;;10.70;4.05;;;;;;;;;;5026015;28;20276;-77
2024/01/16 13:07:43;;;;;;;5.03;3.60;;;;;;;;;;5025486;28;20178;-77
2024/01/16 13:10:09;;;;;;;5.13;3.13;;;;;;;;;;5025875;28;20251;-77
2024/01/16 13:12:36;;;;;;;6.80;3.55;;;;;;;;;;5021366;28;20445;-78
2024/01/16 13:15:05;;;;;;;8.50;3.60;;;;;;;;;;5009042;28;20192;-77
2024/01/16 13:17:31;;;;;;;8.57;3.88;;;;;;;;;;5005897;28;20203;-77
2024/01/16 13:19:57;;;;;;;8.50;4.20;;;;;;;;;;5024720;28;20194;-77
2024/01/16 13:22:23;;;;;;;8.57;3.10;;;;;;;;;;5025104;28;20410;-77
2024/01/16 13:24:49;;;;;;;8.60;3.50;;;;;;;;;;5025712;28;20418;-77
2024/01/16 13:27:15;;;;;;;5.67;2.70;;;;;;;;;;5023852;28;20421;-77
2024/01/16 13:29:41;;;;;;;5.30;2.80;;;;;;;;;;5024176;28;20469;-77
2024/01/16 13:32:07;;;;;;;7.10;3.67;;;;;;;;;;5025098;28;20418;-77
2024/01/16 13:34:33;;;;;;;8.73;3.75;;;;;;;;;;5024691;28;20578;-78
2024/01/16 13:37:01;;;;;;;7.87;4.07;;;;;;;;;;5025467;28;20179;-77
2024/01/16 13:39:28;;;;;;;5.95;3.63;;;;;;;;;;5043781;28;20413;-77
2024/01/16 13:41:54;;;;;;;5.90;3.53;;;;;;;;;;5043948;28;20178;-77
2024/01/16 13:44:20;;;;;;;3.75;2.83;;;;;;;;;;5043783;28;20205;-77
2024/01/16 13:46:46;;;;;;;9.90;4.67;;;;;;;;;;5043602;28;20199;-77
2024/01/16 13:49:12;;;;;;;5.60;3.90;;;;;;;;;;5044295;28;20549;-77
2024/01/16 13:51:38;;;;;;;12.33;4.20;;;;;;;;;;5043764;28;20405;-77
2024/01/16 13:54:03;;;;;;;6.80;3.60;;;;;;;;;;5036436;28;20446;-77
2024/01/16 13:56:29;;;;;;;6.87;3.40;;;;;;;;;;5023470;28;20405;-79
2024/01/16 13:58:55;;;;;;;10.43;4.03;;;;;;;;;;5023291;28;20413;-77
2024/01/16 14:01:21;;;;;;;10.47;3.37;;;;;;;;;;5022323;28;20403;-77
2024/01/16 14:03:48;;;;;;;6.38;3.25;;;;;;;;;;5021661;28;20413;-77
2024/01/16 14:06:15;;;;;;;5.65;3.70;;;;;;;;;;5023503;28;20181;-77
2024/01/16 14:08:41;;;;;;;7.07;3.85;;;;;;;;;;5021584;28;20222;-77
2024/01/16 14:11:07;;;;;;;5.73;3.33;;;;;;;;;;5021688;28;20254;-77
2024/01/16 14:13:33;;;;;;;7.50;3.77;;;;;;;;;;5021109;28;20406;-78
2024/01/16 14:15:59;;;;;;;8.40;3.45;;;;;;;;;;5022263;28;20402;-77
2024/01/16 14:18:25;;;;;;;6.30;3.70;;;;;;;;;;5021502;28;20596;-77
2024/01/16 14:20:51;;;;;;;6.00;3.53;;;;;;;;;;5021788;28;20414;-77
2024/01/16 14:23:17;;;;;;;9.93;3.37;;;;;;;;;;5021551;28;20421;-77
2024/01/16 14:25:45;;;;;;;6.23;4.00;;;;;;;;;;5022138;28;20421;-77
2024/01/16 14:28:12;;;;;;;6.65;3.60;;;;;;;;;;5021996;28;20417;-77
2024/01/16 14:30:38;;;;;;;5.80;3.53;;;;;;;;;;5021982;28;20238;-78
2024/01/16 14:33:06;;;;;;;6.80;3.63;;;;;;;;;;5022428;28;20201;-77